createdAt,value
2018-05-27T00:00:51.576Z,16.69
2018-05-27T00:03:19.820Z,16.65
2018-05-27T00:05:48.086Z,16.58
2018-05-27T00:08:16.380Z,16.54
2018-05-27T00:10:44.621Z,16.58
2018-05-27T00:13:13.686Z,16.43
2018-05-27T00:15:41.931Z,16.48
2018-05-27T00:18:10.197Z,16.50
2018-05-27T00:20:38.463Z,16.52
2018-05-27T00:23:06.725Z,16.47
2018-05-27T00:25:35.745Z,16.37
2018-05-27T00:28:04.046Z,16.42
2018-05-27T00:30:32.313Z,16.44
2018-05-27T00:33:00.554Z,16.45
2018-05-27T00:35:29.661Z,16.39
2018-05-27T00:37:57.924Z,16.37
2018-05-27T00:40:26.938Z,16.43
2018-05-27T00:42:55.231Z,16.45
2018-05-27T00:45:24.244Z,16.38
2018-05-27T00:47:52.506Z,16.41
2018-05-27T00:50:20.780Z,16.37
2018-05-27T00:52:49.037Z,16.35
2018-05-27T00:55:17.282Z,16.30
2018-05-27T00:57:46.324Z,16.21
2018-05-27T01:00:14.574Z,16.13
2018-05-27T01:02:42.863Z,16.06
2018-05-27T01:05:11.138Z,15.97
2018-05-27T01:07:39.401Z,15.97
2018-05-27T01:10:07.648Z,16.02
2018-05-27T01:12:35.929Z,16.02
2018-05-27T01:15:04.955Z,16.06
2018-05-27T01:17:33.221Z,16.10
2018-05-27T01:20:01.494Z,16.01
2018-05-27T01:22:29.764Z,16.06
2018-05-27T01:24:58.886Z,16.13
2018-05-27T01:27:27.178Z,16.17
2018-05-27T01:29:55.460Z,16.19
2018-05-27T01:32:23.712Z,16.25
2018-05-27T01:34:51.993Z,16.33
2018-05-27T01:37:20.263Z,16.19
2018-05-27T01:39:48.525Z,16.13
2018-05-27T01:42:16.806Z,16.14
2018-05-27T01:44:45.052Z,16.06
2018-05-27T01:47:13.308Z,16.05
2018-05-27T01:49:41.573Z,15.92
2018-05-27T01:52:09.834Z,15.93
2018-05-27T01:54:38.095Z,15.89
2018-05-27T01:57:06.362Z,15.84
2018-05-27T01:59:34.609Z,15.78
2018-05-27T02:02:03.657Z,15.82
2018-05-27T02:04:31.942Z,15.74
2018-05-27T02:07:00.198Z,15.71
2018-05-27T02:09:28.450Z,15.65
2018-05-27T02:11:57.487Z,15.45
2018-05-27T02:14:25.737Z,15.31
2018-05-27T02:16:54.002Z,15.44
2018-05-27T02:19:22.268Z,15.53
2018-05-27T02:21:51.291Z,15.52
2018-05-27T02:24:19.561Z,15.52
2018-05-27T02:26:47.821Z,15.43
2018-05-27T02:29:16.072Z,15.45
2018-05-27T02:31:44.357Z,15.48
2018-05-27T02:34:13.383Z,15.46
2018-05-27T02:36:41.640Z,15.39
2018-05-27T02:39:10.672Z,15.34
2018-05-27T02:41:38.934Z,15.25
2018-05-27T02:44:07.196Z,15.23
2018-05-27T02:46:35.465Z,15.19
2018-05-27T02:49:03.738Z,15.14
2018-05-27T02:51:32.765Z,15.10
2018-05-27T02:54:01.030Z,15.09
2018-05-27T02:56:29.307Z,15.02
2018-05-27T02:58:57.553Z,15.09
2018-05-27T03:01:26.618Z,15.03
2018-05-27T03:03:54.871Z,15.06
2018-05-27T03:06:23.132Z,15.00
2018-05-27T03:08:51.407Z,15.02
2018-05-27T03:11:19.661Z,14.99
2018-05-27T03:13:48.677Z,14.98
2018-05-27T03:16:16.956Z,14.95
2018-05-27T03:18:45.209Z,14.90
2018-05-27T03:21:14.308Z,14.88
2018-05-27T03:23:42.579Z,14.78
2018-05-27T03:26:11.598Z,14.78
2018-05-27T03:28:39.861Z,14.70
2018-05-27T03:31:08.128Z,14.76
2018-05-27T03:33:36.386Z,14.81
2018-05-27T03:36:05.409Z,14.83
2018-05-27T03:38:33.673Z,14.77
2018-05-27T03:41:02.694Z,14.70
2018-05-27T03:43:30.945Z,14.65
2018-05-27T03:45:59.219Z,14.69
2018-05-27T03:48:27.465Z,14.67
2018-05-27T03:50:55.725Z,14.64
2018-05-27T03:53:24.028Z,14.59
2018-05-27T03:55:53.045Z,14.77
2018-05-27T03:58:21.295Z,14.85
2018-05-27T04:00:50.327Z,14.95
2018-05-27T04:03:18.582Z,14.97
2018-05-27T04:06:05.450Z,15.13
2018-05-27T04:08:34.542Z,15.26
2018-05-27T04:11:02.787Z,15.26
2018-05-27T04:13:31.056Z,15.36
2018-05-27T04:15:59.310Z,15.48
2018-05-27T04:18:28.329Z,15.25
2018-05-27T04:20:56.585Z,15.26
2018-05-27T04:23:25.600Z,15.45
2018-05-27T04:25:53.846Z,15.59
2018-05-27T04:28:22.883Z,15.73
2018-05-27T04:30:51.125Z,15.81
2018-05-27T04:33:20.206Z,15.89
2018-05-27T04:35:48.488Z,15.93
2018-05-27T04:38:17.534Z,16.08
2018-05-27T04:40:45.796Z,16.18
2018-05-27T04:43:14.091Z,16.30
2018-05-27T04:45:42.342Z,16.43
2018-05-27T04:48:10.625Z,16.47
2018-05-27T04:50:38.894Z,16.49
2018-05-27T04:53:07.161Z,16.50
2018-05-27T04:55:35.407Z,16.45
2018-05-27T04:58:04.453Z,16.48
2018-05-27T05:00:32.704Z,16.52
2018-05-27T05:03:00.967Z,16.64
2018-05-27T05:05:30.005Z,16.73
2018-05-27T05:07:58.263Z,16.87
2018-05-27T05:10:26.517Z,16.86
2018-05-27T05:12:55.561Z,16.97
2018-05-27T05:15:23.812Z,17.06
2018-05-27T05:17:52.083Z,17.15
2018-05-27T05:20:20.360Z,17.28
2018-05-27T05:22:48.613Z,17.43
2018-05-27T05:25:17.629Z,17.54
2018-05-27T05:27:45.962Z,17.62
2018-05-27T05:30:14.964Z,17.75
2018-05-27T05:32:43.997Z,17.77
2018-05-27T05:35:12.264Z,17.87
2018-05-27T05:37:40.625Z,18.00
2018-05-27T05:40:09.652Z,18.17
2018-05-27T05:42:37.933Z,18.30
2018-05-27T05:45:06.185Z,18.46
2018-05-27T05:47:34.442Z,18.59
2018-05-27T05:50:03.473Z,18.74
2018-05-27T05:52:31.724Z,18.84
2018-05-27T05:55:00.021Z,18.83
2018-05-27T05:57:28.298Z,18.97
2018-05-27T05:59:56.544Z,18.93
2018-05-27T06:02:25.565Z,18.89
2018-05-27T06:04:53.842Z,18.84
2018-05-27T06:07:22.129Z,19.12
2018-05-27T06:09:50.398Z,19.34
2018-05-27T06:12:18.672Z,19.59
2018-05-27T06:14:46.920Z,19.75
2018-05-27T06:17:15.945Z,19.98
2018-05-27T06:19:44.206Z,20.09
2018-05-27T06:22:12.490Z,20.12
2018-05-27T06:24:40.737Z,20.16
2018-05-27T06:27:09.778Z,20.37
2018-05-27T06:29:38.036Z,20.48
2018-05-27T06:32:06.356Z,20.68
2018-05-27T06:34:34.572Z,20.88
2018-05-27T06:37:02.848Z,21.05
2018-05-27T06:39:31.101Z,21.07
2018-05-27T06:42:00.137Z,21.11
2018-05-27T06:44:28.389Z,21.16
2018-05-27T06:46:57.407Z,21.46
2018-05-27T06:49:25.733Z,21.63
2018-05-27T06:51:53.994Z,21.81
2018-05-27T06:54:22.253Z,21.89
2018-05-27T06:56:50.560Z,21.78
2018-05-27T06:59:18.801Z,21.99
2018-05-27T07:01:47.064Z,22.24
2018-05-27T07:04:15.330Z,22.54
2018-05-27T07:06:43.601Z,22.67
2018-05-27T07:09:11.867Z,22.93
2018-05-27T07:11:40.990Z,22.82
2018-05-27T07:14:09.186Z,22.85
2018-05-27T07:16:37.441Z,22.94
2018-05-27T07:19:05.702Z,22.84
2018-05-27T07:21:33.968Z,22.95
2018-05-27T07:24:02.997Z,23.02
2018-05-27T07:26:31.280Z,22.85
2018-05-27T07:28:59.585Z,23.19
2018-05-27T07:31:29.348Z,23.37
2018-05-27T07:33:57.635Z,23.69
2018-05-27T07:36:25.885Z,23.95
2018-05-27T07:38:54.181Z,23.85
2018-05-27T07:41:22.505Z,24.12
2018-05-27T07:43:50.765Z,24.20
2018-05-27T07:46:19.023Z,24.28
2018-05-27T07:48:47.284Z,24.43
2018-05-27T07:51:15.538Z,24.72
2018-05-27T07:53:44.585Z,24.74
2018-05-27T07:56:12.853Z,25.01
2018-05-27T07:58:41.101Z,25.07
2018-05-27T08:01:09.372Z,25.12
2018-05-27T08:03:37.637Z,25.22
2018-05-27T08:06:05.956Z,25.60
2018-05-27T08:08:34.216Z,25.34
2018-05-27T08:11:02.534Z,25.16
2018-05-27T08:13:30.796Z,25.02
2018-05-27T08:15:59.059Z,25.40
2018-05-27T08:18:27.337Z,25.81
2018-05-27T08:20:55.589Z,26.12
2018-05-27T08:23:23.869Z,26.24
2018-05-27T08:25:52.217Z,26.29
2018-05-27T08:28:20.524Z,26.45
2018-05-27T08:30:48.773Z,26.40
2018-05-27T08:33:17.814Z,26.38
2018-05-27T08:35:46.076Z,26.43
2018-05-27T08:38:14.331Z,26.49
2018-05-27T08:40:42.606Z,26.65
2018-05-27T08:43:10.857Z,26.89
2018-05-27T08:45:39.884Z,27.09
2018-05-27T08:48:08.145Z,26.74
2018-05-27T08:50:37.166Z,26.67
2018-05-27T08:53:05.426Z,26.48
2018-05-27T08:55:33.693Z,26.60
2018-05-27T08:58:01.970Z,26.30
2018-05-27T09:00:31.024Z,26.23
2018-05-27T09:02:59.268Z,26.05
2018-05-27T09:05:27.530Z,26.07
2018-05-27T09:07:55.797Z,25.94
2018-05-27T09:10:24.048Z,26.05
2018-05-27T09:12:53.066Z,26.08
2018-05-27T09:15:21.363Z,26.02
2018-05-27T09:17:50.350Z,26.15
2018-05-27T09:20:18.622Z,26.20
2018-05-27T09:22:46.888Z,26.63
2018-05-27T09:25:15.145Z,26.85
2018-05-27T09:27:44.167Z,26.98
2018-05-27T09:30:12.425Z,27.25
2018-05-27T09:32:41.449Z,27.47
2018-05-27T09:35:09.693Z,27.57
2018-05-27T09:37:38.734Z,27.09
2018-05-27T09:40:06.988Z,27.17
2018-05-27T09:42:35.336Z,27.25
2018-05-27T09:45:04.381Z,27.59
2018-05-27T09:47:32.616Z,27.39
2018-05-27T09:50:01.632Z,27.39
2018-05-27T09:52:29.909Z,27.45
2018-05-27T09:54:58.217Z,27.61
2018-05-27T09:57:26.463Z,27.86
2018-05-27T09:59:54.747Z,28.11
2018-05-27T10:02:22.992Z,28.11
2018-05-27T10:04:51.246Z,28.29
2018-05-27T10:07:20.277Z,28.50
2018-05-27T10:09:48.522Z,28.91
2018-05-27T10:12:17.545Z,28.79
2018-05-27T10:14:45.804Z,28.58
2018-05-27T10:17:14.069Z,28.81
2018-05-27T10:19:43.076Z,28.72
2018-05-27T10:22:11.401Z,28.66
2018-05-27T10:24:39.652Z,29.11
2018-05-27T10:27:07.926Z,29.01
2018-05-27T10:29:36.200Z,29.18
2018-05-27T10:32:04.449Z,28.87
2018-05-27T10:34:33.465Z,28.96
2018-05-27T10:37:01.728Z,29.14
2018-05-27T10:39:29.981Z,29.32
2018-05-27T10:41:59.004Z,29.48
2018-05-27T10:44:27.268Z,29.71
2018-05-27T10:46:55.523Z,30.02
2018-05-27T10:49:23.780Z,30.01
2018-05-27T10:51:52.048Z,30.24
2018-05-27T10:54:20.300Z,30.25
2018-05-27T10:56:48.605Z,29.61
2018-05-27T10:59:16.868Z,29.60
2018-05-27T11:01:45.127Z,29.69
2018-05-27T11:04:13.373Z,29.95
2018-05-27T11:06:42.402Z,29.82
2018-05-27T11:09:10.697Z,29.64
2018-05-27T11:11:38.956Z,29.75
2018-05-27T11:14:07.318Z,30.06
2018-05-27T11:16:35.569Z,29.75
2018-05-27T11:19:04.595Z,29.91
2018-05-27T11:21:32.961Z,29.62
2018-05-27T11:24:01.209Z,29.65
2018-05-27T11:26:30.228Z,30.08
2018-05-27T11:28:58.493Z,30.36
2018-05-27T11:31:27.531Z,30.56
2018-05-27T11:33:55.772Z,30.86
2018-05-27T11:36:24.045Z,30.84
2018-05-27T11:38:52.310Z,30.90
2018-05-27T11:41:21.334Z,30.55
2018-05-27T11:43:49.592Z,30.95
2018-05-27T11:46:17.840Z,30.93
2018-05-27T11:48:46.104Z,30.73
2018-05-27T11:51:14.381Z,31.18
2018-05-27T11:53:42.656Z,30.59
2018-05-27T11:56:10.904Z,30.66
2018-05-27T11:58:39.164Z,30.69
2018-05-27T12:01:08.657Z,30.55
2018-05-27T12:03:36.946Z,30.62
2018-05-27T12:06:05.252Z,30.26
2018-05-27T12:08:33.572Z,30.10
2018-05-27T12:11:02.637Z,30.33
2018-05-27T12:13:30.965Z,30.35
2018-05-27T12:15:59.324Z,30.15
2018-05-27T12:18:27.617Z,30.06
2018-05-27T12:20:55.939Z,30.90
2018-05-27T12:23:24.291Z,31.44
2018-05-27T12:25:52.590Z,31.52
2018-05-27T12:28:20.929Z,31.95
2018-05-27T12:30:49.246Z,32.20
2018-05-27T12:33:17.501Z,32.26
2018-05-27T12:35:45.760Z,32.24
2018-05-27T12:38:14.025Z,32.36
2018-05-27T12:40:42.283Z,32.77
2018-05-27T12:43:11.313Z,32.86
2018-05-27T12:45:39.563Z,32.51
2018-05-27T12:48:08.585Z,32.01
2018-05-27T12:50:36.854Z,32.37
2018-05-27T12:53:05.120Z,32.93
2018-05-27T12:55:33.365Z,33.24
2018-05-27T12:58:01.634Z,33.28
2018-05-27T13:00:29.885Z,33.35
2018-05-27T13:02:58.148Z,33.57
2018-05-27T13:05:26.428Z,33.48
2018-05-27T13:07:54.685Z,33.26
2018-05-27T13:10:22.969Z,33.01
2018-05-27T13:12:51.236Z,32.26
2018-05-27T13:15:19.485Z,31.57
2018-05-27T13:17:48.516Z,30.71
2018-05-27T13:20:16.869Z,30.60
2018-05-27T13:22:45.171Z,30.13
2018-05-27T13:25:13.436Z,29.91
2018-05-27T13:27:41.713Z,29.36
2018-05-27T13:30:09.986Z,29.09
2018-05-27T13:32:38.301Z,29.07
2018-05-27T13:35:06.638Z,28.48
2018-05-27T13:37:34.945Z,28.18
2018-05-27T13:40:03.301Z,27.71
2018-05-27T13:42:31.860Z,27.36
2018-05-27T13:45:00.965Z,27.24
2018-05-27T13:47:30.050Z,27.16
2018-05-27T13:49:58.397Z,26.89
2018-05-27T13:52:26.677Z,26.78
2018-05-27T13:54:54.926Z,26.71
2018-05-27T13:57:23.189Z,26.72
2018-05-27T13:59:51.451Z,26.59
2018-05-27T14:02:19.712Z,26.08
2018-05-27T14:04:48.763Z,25.84
2018-05-27T14:07:17.003Z,25.87
2018-05-27T14:09:45.251Z,25.89
2018-05-27T14:12:14.285Z,25.87
2018-05-27T14:14:42.537Z,26.07
2018-05-27T14:17:10.863Z,26.40
2018-05-27T14:19:39.840Z,26.57
2018-05-27T14:22:08.113Z,26.78
2018-05-27T14:24:36.364Z,26.99
2018-05-27T14:27:04.650Z,27.22
2018-05-27T14:29:32.909Z,27.45
2018-05-27T14:32:01.924Z,27.64
2018-05-27T14:34:30.201Z,28.02
2018-05-27T14:36:58.473Z,28.26
2018-05-27T14:39:26.732Z,28.29
2018-05-27T14:41:55.009Z,28.43
2018-05-27T14:44:23.261Z,28.60
2018-05-27T14:46:51.532Z,28.88
2018-05-27T14:49:19.796Z,29.07
2018-05-27T14:51:48.053Z,29.16
2018-05-27T14:54:16.330Z,29.22
2018-05-27T14:56:44.581Z,29.26
2018-05-27T14:59:12.835Z,29.42
2018-05-27T15:01:41.905Z,30.07
2018-05-27T15:04:10.165Z,31.30
2018-05-27T15:06:38.417Z,32.74
2018-05-27T15:09:06.685Z,33.76
2018-05-27T15:11:34.932Z,35.06
2018-05-27T15:14:03.949Z,35.17
2018-05-27T15:16:32.237Z,35.72
2018-05-27T15:19:00.491Z,35.88
2018-05-27T15:21:28.739Z,36.09
2018-05-27T15:23:57.004Z,35.60
2018-05-27T15:26:25.264Z,33.59
2018-05-27T15:28:53.542Z,33.46
2018-05-27T15:31:21.805Z,33.93
2018-05-27T15:33:50.056Z,34.59
2018-05-27T15:36:18.336Z,33.99
2018-05-27T15:38:46.590Z,33.75
2018-05-27T15:41:16.848Z,33.62
2018-05-27T15:43:45.132Z,33.42
2018-05-27T15:46:13.388Z,33.64
2018-05-27T15:48:41.630Z,32.95
2018-05-27T15:51:10.663Z,32.57
2018-05-27T15:53:38.913Z,32.68
2018-05-27T15:56:07.175Z,33.05
2018-05-27T15:58:36.228Z,34.01
2018-05-27T16:01:04.516Z,33.79
2018-05-27T16:03:32.799Z,33.66
2018-05-27T16:06:01.039Z,33.24
2018-05-27T16:08:29.308Z,33.10
2018-05-27T16:10:57.584Z,32.30
2018-05-27T16:13:25.861Z,31.85
2018-05-27T16:15:54.106Z,31.28
2018-05-27T16:18:23.137Z,30.82
2018-05-27T16:20:51.397Z,30.84
2018-05-27T16:23:19.661Z,30.49
2018-05-27T16:25:48.697Z,30.11
2018-05-27T16:28:16.957Z,29.53
2018-05-27T16:30:45.210Z,29.26
2018-05-27T16:33:13.481Z,28.88
2018-05-27T16:35:42.509Z,28.70
2018-05-27T16:38:10.778Z,28.58
2018-05-27T16:40:39.075Z,28.22
2018-05-27T16:43:07.296Z,28.22
2018-05-27T16:45:36.328Z,27.95
2018-05-27T16:48:04.589Z,27.72
2018-05-27T16:50:32.846Z,27.63
2018-05-27T16:53:01.874Z,27.51
2018-05-27T16:55:30.144Z,27.33
2018-05-27T16:57:58.400Z,27.04
2018-05-27T17:00:26.652Z,26.88
2018-05-27T17:02:55.712Z,26.50
2018-05-27T17:05:23.991Z,26.55
2018-05-27T17:07:52.254Z,26.54
2018-05-27T17:10:20.540Z,26.50
2018-05-27T17:12:48.789Z,27.01
2018-05-27T17:15:17.090Z,27.98
2018-05-27T17:17:45.393Z,28.55
2018-05-27T17:20:13.675Z,29.25
2018-05-27T17:22:41.941Z,30.02
2018-05-27T17:25:10.215Z,29.99
2018-05-27T17:27:38.471Z,29.54
2018-05-27T17:30:06.725Z,29.37
2018-05-27T17:32:35.009Z,29.01
2018-05-27T17:35:03.261Z,28.90
2018-05-27T17:37:31.512Z,28.87
2018-05-27T17:39:59.912Z,28.33
2018-05-27T17:42:28.217Z,27.91
2018-05-27T17:44:56.576Z,27.66
2018-05-27T17:47:24.981Z,27.08
2018-05-27T17:49:53.317Z,27.29
2018-05-27T17:52:22.360Z,27.03
2018-05-27T17:54:50.821Z,26.71
2018-05-27T17:57:19.097Z,26.47
2018-05-27T17:59:47.494Z,26.36
2018-05-27T18:02:16.023Z,26.48
2018-05-27T18:04:44.521Z,26.41
2018-05-27T18:07:12.839Z,26.30
2018-05-27T18:09:41.213Z,26.14
2018-05-27T18:12:09.554Z,25.66
2018-05-27T18:14:37.989Z,25.80
2018-05-27T18:17:06.783Z,25.75
2018-05-27T18:19:36.761Z,25.65
2018-05-27T18:22:06.327Z,25.64
2018-05-27T18:24:35.639Z,25.31
2018-05-27T18:27:04.925Z,25.17
2018-05-27T18:29:34.805Z,24.82
2018-05-27T18:32:04.770Z,24.75
2018-05-27T18:34:34.849Z,24.78
2018-05-27T18:37:04.808Z,24.65
2018-05-27T18:39:34.671Z,24.56
2018-05-27T18:42:04.662Z,24.50
2018-05-27T18:44:34.716Z,24.43
2018-05-27T18:47:04.194Z,24.37
2018-05-27T18:49:33.525Z,24.32
2018-05-27T18:52:02.866Z,24.22
2018-05-27T18:54:32.257Z,24.03
2018-05-27T18:57:01.547Z,23.91
2018-05-27T18:59:32.732Z,23.84
2018-05-27T19:02:02.785Z,23.75
2018-05-27T19:04:32.273Z,23.66
2018-05-27T19:07:01.782Z,23.30
2018-05-27T19:09:31.104Z,23.32
2018-05-27T19:12:02.343Z,23.28
2018-05-27T19:14:31.803Z,23.25
2018-05-27T19:17:02.051Z,23.20
2018-05-27T19:19:31.547Z,23.11
2018-05-27T19:22:00.862Z,23.06
2018-05-27T19:24:30.262Z,22.92
2018-05-27T19:26:59.528Z,22.47
2018-05-27T19:29:29.696Z,22.34
2018-05-27T19:31:58.897Z,22.52
2018-05-27T19:34:28.326Z,22.63
2018-05-27T19:36:57.756Z,22.70
2018-05-27T19:39:27.050Z,22.74
2018-05-27T19:41:56.654Z,22.57
2018-05-27T19:44:26.066Z,22.57
2018-05-27T19:46:56.106Z,22.56
2018-05-27T19:49:25.560Z,22.68
2018-05-27T19:51:54.928Z,22.42
2018-05-27T19:54:25.879Z,22.33
2018-05-27T19:56:55.313Z,22.38
2018-05-27T19:59:24.677Z,22.37
2018-05-27T20:01:53.940Z,22.54
2018-05-27T20:04:24.935Z,22.65
2018-05-27T20:06:55.017Z,22.66
2018-05-27T20:09:24.713Z,22.66
2018-05-27T20:11:54.059Z,22.69
2018-05-27T20:14:23.318Z,22.73
2018-05-27T20:16:52.698Z,22.78
2018-05-27T20:19:22.779Z,22.81
2018-05-27T20:21:52.191Z,22.79
2018-05-27T20:24:21.552Z,22.76
2018-05-27T20:26:51.004Z,22.70
2018-05-27T20:29:20.362Z,22.55
2018-05-27T20:34:18.120Z,21.98
2018-05-27T20:36:48.193Z,22.09
2018-05-27T20:39:17.553Z,22.15
2018-05-27T20:41:46.870Z,22.11
2018-05-27T20:44:16.110Z,22.04
2018-05-27T20:46:45.378Z,22.06
2018-05-27T20:49:14.622Z,21.91
2018-05-27T20:51:43.848Z,21.85
2018-05-27T20:54:13.274Z,21.73
2018-05-27T20:56:42.427Z,21.69
2018-05-27T20:59:11.476Z,21.66
2018-05-27T21:01:40.337Z,21.57
2018-05-27T21:04:08.739Z,21.45
2018-05-27T21:06:37.716Z,21.34
2018-05-27T21:09:06.014Z,21.32
2018-05-27T21:11:34.261Z,21.14
2018-05-27T21:14:02.516Z,21.03
2018-05-27T21:16:30.787Z,21.01
2018-05-27T21:18:59.040Z,20.92
2018-05-27T21:21:28.051Z,20.80
2018-05-27T21:23:56.334Z,20.83
2018-05-27T21:26:24.582Z,20.84
2018-05-27T21:28:52.842Z,20.66
2018-05-27T21:31:21.108Z,20.45
2018-05-27T21:33:49.368Z,20.47
2018-05-27T21:36:17.649Z,20.19
2018-05-27T21:38:46.688Z,20.03
2018-05-27T21:41:15.721Z,19.99
2018-05-27T21:43:43.969Z,20.09
2018-05-27T21:46:13.077Z,20.23
2018-05-27T21:48:41.273Z,20.28
2018-05-27T21:51:09.522Z,20.39
2018-05-27T21:53:37.787Z,20.41
2018-05-27T21:56:06.805Z,20.42
2018-05-27T21:58:35.082Z,20.40
2018-05-27T22:01:03.359Z,20.33
2018-05-27T22:03:31.616Z,20.22
2018-05-27T22:06:00.632Z,20.10
2018-05-27T22:08:28.909Z,20.22
2018-05-27T22:10:57.182Z,19.95
2018-05-27T22:13:25.442Z,20.00
2018-05-27T22:15:53.705Z,19.95
2018-05-27T22:18:22.720Z,19.82
2018-05-27T22:20:50.979Z,19.72
2018-05-27T22:23:20.012Z,19.82
2018-05-27T22:25:48.276Z,19.88
2018-05-27T22:28:16.540Z,19.75
2018-05-27T22:30:44.796Z,19.94
2018-05-27T22:33:13.814Z,20.06
2018-05-27T22:35:42.094Z,20.01
2018-05-27T22:38:10.352Z,20.03
2018-05-27T22:40:38.609Z,19.86
2018-05-27T22:43:07.644Z,19.97
2018-05-27T22:45:35.888Z,20.07
2018-05-27T22:48:04.929Z,20.17
2018-05-27T22:50:33.183Z,20.25
2018-05-27T22:53:01.429Z,20.26
2018-05-27T22:55:30.472Z,20.23
2018-05-27T22:57:58.724Z,20.30
2018-05-27T23:00:26.973Z,20.20
2018-05-27T23:02:56.000Z,20.18
2018-05-27T23:05:24.253Z,20.18
2018-05-27T23:07:53.279Z,20.22
2018-05-27T23:10:21.560Z,20.19
2018-05-27T23:12:49.812Z,20.21
2018-05-27T23:15:18.060Z,20.20
2018-05-27T23:17:47.097Z,20.24
2018-05-27T23:20:15.366Z,20.20
2018-05-27T23:22:43.620Z,20.10
2018-05-27T23:25:12.668Z,20.05
2018-05-27T23:27:40.916Z,20.08
2018-05-27T23:30:09.172Z,20.15
2018-05-27T23:32:37.449Z,20.15
2018-05-27T23:35:05.708Z,20.13
2018-05-27T23:37:33.961Z,20.07
2018-05-27T23:40:02.239Z,19.78
2018-05-27T23:42:30.500Z,19.49
2018-05-27T23:44:58.745Z,19.35
2018-05-27T23:47:27.012Z,19.44
2018-05-27T23:49:55.276Z,19.51
2018-05-27T23:52:24.297Z,19.52
2018-05-27T23:54:52.562Z,19.62
2018-05-27T23:57:20.821Z,19.66
2018-05-27T23:59:49.834Z,19.53
